createdAt,value
2018-12-15T00:00:23.115Z,41.25
2018-12-15T00:06:15.254Z,38.17
2018-12-15T00:08:52.827Z,38.40
2018-12-15T00:14:52.396Z,43.33
2018-12-15T00:17:33.944Z,37.55
2018-12-15T00:20:14.352Z,46.40
2018-12-15T00:39:16.094Z,40.33
2018-12-15T00:42:05.043Z,40.40
2018-12-15T00:44:54.397Z,38.30
2018-12-15T00:47:44.948Z,42.03
2018-12-15T00:50:26.443Z,35.28
2018-12-15T00:56:16.680Z,35.58
2018-12-15T00:59:01.409Z,42.98
2018-12-15T01:01:52.357Z,40.00
2018-12-15T01:04:51.099Z,40.63
2018-12-15T01:07:31.783Z,42.53
2018-12-15T01:10:13.394Z,40.00
2018-12-15T01:13:05.217Z,46.73
2018-12-15T01:18:51.497Z,40.67
2018-12-15T01:24:27.127Z,43.05
2018-12-15T01:27:15.590Z,44.83
2018-12-15T01:30:04.703Z,38.70
2018-12-15T01:32:52.069Z,40.05
2018-12-15T01:35:32.745Z,46.83
2018-12-15T01:38:15.601Z,38.17
2018-12-15T01:40:58.020Z,40.95
2018-12-15T01:43:40.967Z,35.80
2018-12-15T01:46:32.138Z,53.10
2018-12-15T01:49:13.093Z,49.42
2018-12-15T01:52:03.483Z,44.98
2018-12-15T01:54:44.183Z,44.42
2018-12-15T01:57:33.523Z,36.68
2018-12-15T02:00:09.990Z,42.23
2018-12-15T02:02:49.546Z,41.98
2018-12-15T02:05:27.025Z,39.83
2018-12-15T02:08:01.242Z,42.25
2018-12-15T02:10:37.823Z,39.92
2018-12-15T02:13:32.943Z,41.85
2018-12-15T02:16:19.656Z,45.63
2018-12-15T02:19:12.854Z,40.17
2018-12-15T02:21:54.445Z,43.28
2018-12-15T02:27:45.077Z,42.25
2018-12-15T02:30:40.558Z,41.68
2018-12-15T02:33:26.560Z,48.13
2018-12-15T02:36:16.540Z,45.78
2018-12-15T02:38:58.485Z,45.45
2018-12-15T02:41:51.982Z,44.42
2018-12-15T02:44:51.597Z,43.00
2018-12-15T02:53:34.430Z,48.58
2018-12-15T02:59:24.822Z,45.50
2018-12-15T03:11:09.908Z,48.73
2018-12-15T03:17:11.097Z,39.35
2018-12-15T03:20:04.430Z,46.53
2018-12-15T03:28:54.110Z,42.08
2018-12-15T03:34:49.600Z,47.00
2018-12-15T03:37:47.002Z,49.27
2018-12-15T03:40:37.479Z,43.68
2018-12-15T03:46:22.963Z,48.95
2018-12-15T03:52:02.217Z,42.93
2018-12-15T03:54:58.579Z,45.23
2018-12-15T04:00:41.962Z,41.63
2018-12-15T04:03:23.159Z,50.17
2018-12-15T04:09:13.559Z,41.68
2018-12-15T04:11:55.386Z,44.38
2018-12-15T04:14:46.950Z,43.55
2018-12-15T04:17:32.391Z,49.73
2018-12-15T04:20:08.276Z,40.20
2018-12-15T04:22:48.403Z,39.95
2018-12-15T04:25:27.214Z,43.90
2018-12-15T04:31:10.412Z,45.67
2018-12-15T04:33:51.456Z,44.95
2018-12-15T04:36:34.082Z,44.10
2018-12-15T04:39:16.766Z,43.63
2018-12-15T04:41:57.469Z,54.85
2018-12-15T04:44:33.147Z,44.30
2018-12-15T04:47:07.539Z,46.37
2018-12-15T04:49:44.433Z,49.55
2018-12-15T04:52:23.498Z,50.78
2018-12-15T04:55:05.481Z,45.30
2018-12-15T04:57:53.571Z,45.30
2018-12-15T05:00:33.773Z,48.63
2018-12-15T05:05:51.827Z,48.70
2018-12-15T05:08:31.934Z,49.15
2018-12-15T05:11:08.834Z,40.45
2018-12-15T05:13:43.567Z,52.58
2018-12-15T05:16:24.127Z,54.90
2018-12-15T05:19:11.788Z,43.40
2018-12-15T05:21:52.310Z,51.88
2018-12-15T05:24:40.121Z,50.75
2018-12-15T05:27:32.777Z,50.50
2018-12-15T05:30:19.683Z,48.02
2018-12-15T05:33:13.329Z,44.83
2018-12-15T05:38:52.244Z,51.15
2018-12-15T05:41:40.195Z,53.17
2018-12-15T05:44:21.441Z,46.20
2018-12-15T05:47:05.620Z,45.35
2018-12-15T05:49:47.723Z,44.80
2018-12-15T05:52:24.803Z,51.00
2018-12-15T05:55:06.907Z,47.08
2018-12-15T05:57:53.152Z,50.25
2018-12-15T06:00:33.667Z,56.13
2018-12-15T06:03:09.717Z,51.98
2018-12-15T06:05:58.220Z,44.70
2018-12-15T06:08:38.734Z,50.38
2018-12-15T06:11:27.890Z,53.23
2018-12-15T06:14:04.728Z,51.37
2018-12-15T06:19:47.602Z,51.95
2018-12-15T06:22:27.163Z,53.28
2018-12-15T06:25:04.049Z,46.68
2018-12-15T06:27:40.557Z,49.65
2018-12-15T06:30:16.461Z,47.60
2018-12-15T06:33:00.080Z,54.30
2018-12-15T06:35:34.600Z,48.87
2018-12-15T06:38:09.449Z,43.40
2018-12-15T06:40:49.056Z,41.00
2018-12-15T06:43:23.652Z,47.93
2018-12-15T06:46:01.201Z,43.75
2018-12-15T06:48:38.306Z,46.20
2018-12-15T06:51:16.249Z,39.48
2018-12-15T06:53:55.330Z,42.45
2018-12-15T06:56:36.718Z,47.73
2018-12-15T06:59:15.506Z,35.73
2018-12-15T07:01:51.244Z,36.75
2018-12-15T07:04:26.802Z,39.38
2018-12-15T07:07:01.049Z,39.05
2018-12-15T07:09:37.298Z,40.48
2018-12-15T07:12:14.122Z,38.50
2018-12-15T07:14:50.234Z,37.42
2018-12-15T07:17:26.546Z,42.40
2018-12-15T07:20:02.496Z,34.38
2018-12-15T07:22:54.659Z,40.15
2018-12-15T07:25:28.826Z,34.60
2018-12-15T07:28:03.730Z,35.00
2018-12-15T07:30:38.172Z,38.60
2018-12-15T07:33:14.530Z,35.43
2018-12-15T07:35:50.391Z,32.05
2018-12-15T07:38:25.883Z,32.30
2018-12-15T07:41:00.691Z,33.53
2018-12-15T07:43:35.537Z,35.23
2018-12-15T07:46:15.738Z,32.35
2018-12-15T07:48:51.630Z,32.98
2018-12-15T07:51:27.745Z,31.93
2018-12-15T07:54:02.709Z,31.27
2018-12-15T07:56:38.497Z,31.85
2018-12-15T07:59:13.266Z,33.70
2018-12-15T08:01:47.749Z,28.90
2018-12-15T08:04:22.530Z,35.45
2018-12-15T08:06:58.189Z,27.95
2018-12-15T08:09:34.338Z,30.60
2018-12-15T08:12:14.198Z,34.95
2018-12-15T08:14:48.643Z,31.33
2018-12-15T08:17:23.250Z,30.05
2018-12-15T08:20:00.701Z,27.55
2018-12-15T08:22:35.353Z,29.55
2018-12-15T08:25:09.871Z,33.60
2018-12-15T08:27:46.622Z,32.30
2018-12-15T08:30:22.607Z,30.52
2018-12-15T08:33:00.524Z,28.00
2018-12-15T08:35:35.173Z,31.48
2018-12-15T08:38:12.438Z,27.70
2018-12-15T08:40:52.299Z,25.80
2018-12-15T08:43:26.546Z,27.98
2018-12-15T08:46:06.708Z,22.73
2018-12-15T08:48:41.791Z,30.43
2018-12-15T08:51:20.929Z,26.80
2018-12-15T08:53:57.090Z,27.07
2018-12-15T08:56:32.788Z,24.87
2018-12-15T08:59:09.108Z,33.13
2018-12-15T09:01:45.150Z,40.43
2018-12-15T09:04:20.897Z,26.55
2018-12-15T09:06:58.227Z,25.75
2018-12-15T09:09:33.901Z,28.73
2018-12-15T09:12:08.979Z,29.70
2018-12-15T09:14:45.897Z,24.90
2018-12-15T09:17:23.024Z,25.80
2018-12-15T09:19:59.653Z,21.87
2018-12-15T09:22:36.291Z,26.12
2018-12-15T09:25:16.336Z,24.43
2018-12-15T09:27:51.988Z,23.12
2018-12-15T09:30:37.322Z,23.55
2018-12-15T09:33:14.956Z,26.35
2018-12-15T09:35:50.465Z,24.27
2018-12-15T09:38:31.949Z,22.40
2018-12-15T09:44:12.680Z,22.77
2018-12-15T09:46:55.394Z,23.77
2018-12-15T09:49:30.408Z,20.65
2018-12-15T09:52:06.505Z,23.27
2018-12-15T09:54:45.315Z,21.33
2018-12-15T09:57:24.134Z,24.00
2018-12-15T10:00:03.130Z,27.90
2018-12-15T10:02:39.808Z,23.38
2018-12-15T10:05:17.518Z,24.00
2018-12-15T10:07:55.702Z,23.12
2018-12-15T10:10:34.295Z,26.62
2018-12-15T10:22:17.139Z,21.45
2018-12-15T10:24:52.768Z,23.12
2018-12-15T10:27:33.839Z,24.90
2018-12-15T10:30:15.435Z,24.60
2018-12-15T10:32:58.579Z,22.55
2018-12-15T10:35:33.539Z,22.87
2018-12-15T10:38:11.494Z,20.82
2018-12-15T10:40:48.070Z,25.32
2018-12-15T10:46:15.756Z,22.75
2018-12-15T10:48:55.178Z,23.07
2018-12-15T10:51:31.078Z,24.67
2018-12-15T10:54:07.097Z,29.18
2018-12-15T11:03:27.145Z,21.12
2018-12-15T11:06:26.844Z,24.77
2018-12-15T11:12:17.467Z,25.45
2018-12-15T11:14:54.347Z,23.10
2018-12-15T11:17:30.964Z,29.52
2018-12-15T11:20:08.722Z,27.48
2018-12-15T11:22:44.178Z,30.25
2018-12-15T11:25:35.214Z,26.85
2018-12-15T11:31:27.714Z,25.88
2018-12-15T11:34:19.721Z,26.82
2018-12-15T11:40:04.160Z,24.47
2018-12-15T11:52:04.032Z,21.85
2018-12-15T11:57:58.131Z,25.85
2018-12-15T12:00:47.633Z,27.48
2018-12-15T12:31:42.610Z,21.27
2018-12-15T12:34:38.290Z,24.05
2018-12-15T12:37:20.988Z,24.87
2018-12-15T12:43:01.342Z,24.47
2018-12-15T13:04:07.785Z,32.88
2018-12-15T13:06:43.386Z,30.25
2018-12-15T13:09:30.596Z,25.85
2018-12-15T13:12:11.573Z,27.17
2018-12-15T13:14:54.129Z,26.68
2018-12-15T13:17:42.698Z,30.27
2018-12-15T13:23:34.392Z,26.48
2018-12-15T13:26:25.124Z,27.75
2018-12-15T13:29:09.257Z,29.10
2018-12-15T13:32:00.104Z,27.55
2018-12-15T13:34:48.022Z,28.73
2018-12-15T13:55:44.675Z,31.57
2018-12-15T13:58:33.712Z,25.72
2018-12-15T14:01:14.222Z,25.45
2018-12-15T14:03:57.573Z,27.77
2018-12-15T14:06:42.397Z,27.48
2018-12-15T14:18:24.454Z,29.50
2018-12-15T14:21:20.363Z,24.67
2018-12-15T14:24:05.924Z,23.92
2018-12-15T14:29:56.502Z,29.65
2018-12-15T14:32:51.011Z,24.72
2018-12-15T14:35:28.577Z,24.67
2018-12-15T14:38:11.257Z,30.37
2018-12-15T14:40:59.023Z,27.17
2018-12-15T14:43:44.166Z,24.92
2018-12-15T14:47:07.489Z,30.55
2018-12-15T14:49:50.998Z,25.62
2018-12-15T14:52:26.549Z,27.17
2018-12-15T14:55:01.846Z,28.62
2018-12-15T14:57:42.607Z,24.47
2018-12-15T15:00:29.214Z,28.83
2018-12-15T15:03:12.824Z,26.80
2018-12-15T15:06:06.039Z,25.82
2018-12-15T15:08:51.955Z,26.85
2018-12-15T15:11:45.759Z,24.12
2018-12-15T15:14:35.437Z,23.40
2018-12-15T15:20:13.444Z,24.72
2018-12-15T15:23:00.260Z,23.52
2018-12-15T15:28:40.726Z,28.05
2018-12-15T15:31:14.914Z,29.87
2018-12-15T15:33:54.415Z,28.15
2018-12-15T15:39:37.573Z,25.92
2018-12-15T15:42:13.560Z,26.07
2018-12-15T15:44:49.643Z,26.07
2018-12-15T15:47:29.392Z,29.00
2018-12-15T15:50:14.466Z,27.37
2018-12-15T15:52:51.542Z,27.87
2018-12-15T15:55:46.725Z,28.35
2018-12-15T15:58:35.368Z,27.05
2018-12-15T16:10:20.517Z,21.80
2018-12-15T16:12:57.619Z,27.60
2018-12-15T16:18:31.520Z,23.38
2018-12-15T16:21:12.610Z,21.75
2018-12-15T16:23:48.924Z,24.27
2018-12-15T16:26:26.390Z,22.52
2018-12-15T16:29:07.627Z,22.55
2018-12-15T16:31:50.908Z,24.15
2018-12-15T16:34:28.830Z,24.15
2018-12-15T16:43:11.931Z,28.70
2018-12-15T16:45:46.979Z,25.77
2018-12-15T16:48:25.412Z,21.35
2018-12-15T16:51:05.151Z,26.50
2018-12-15T16:53:45.462Z,28.23
2018-12-15T16:56:23.081Z,24.02
2018-12-15T16:58:58.665Z,28.32
2018-12-15T17:01:43.078Z,31.45
2018-12-15T17:04:23.102Z,28.35
2018-12-15T17:06:59.959Z,28.45
2018-12-15T17:09:44.612Z,33.75
2018-12-15T17:12:22.899Z,35.83
2018-12-15T17:15:08.388Z,32.40
2018-12-15T17:20:56.730Z,29.05
2018-12-15T17:23:50.741Z,39.30
2018-12-15T17:26:32.401Z,37.30
2018-12-15T17:29:07.487Z,39.15
2018-12-15T17:31:43.150Z,38.00
2018-12-15T17:34:18.305Z,35.10
2018-12-15T17:36:57.458Z,38.13
2018-12-15T17:39:36.770Z,36.58
2018-12-15T17:42:25.464Z,35.83
2018-12-15T17:47:46.588Z,40.80
2018-12-15T17:50:33.853Z,39.70
2018-12-15T17:53:26.154Z,39.90
2018-12-15T17:56:08.607Z,35.98
2018-12-15T17:58:47.183Z,33.83
2018-12-15T18:01:26.350Z,38.25
2018-12-15T18:04:18.316Z,36.80
2018-12-15T18:10:12.179Z,37.20
2018-12-15T18:12:55.799Z,37.55
2018-12-15T18:15:48.368Z,30.23
2018-12-15T18:18:26.395Z,38.25
2018-12-15T18:21:09.792Z,40.83
2018-12-15T18:23:50.792Z,38.53
2018-12-15T18:26:26.698Z,40.35
2018-12-15T18:29:02.629Z,37.53
2018-12-15T18:31:37.277Z,36.77
2018-12-15T18:34:12.722Z,37.90
2018-12-15T18:36:49.014Z,34.88
2018-12-15T18:39:38.535Z,36.35
2018-12-15T18:42:14.526Z,40.58
2018-12-15T18:44:50.124Z,38.58
2018-12-15T18:47:29.906Z,42.25
2018-12-15T18:50:06.466Z,37.00
2018-12-15T18:52:43.435Z,37.17
2018-12-15T19:01:25.611Z,33.80
2018-12-15T19:04:17.004Z,30.02
2018-12-15T19:06:52.272Z,34.15
2018-12-15T19:09:36.590Z,29.82
2018-12-15T19:12:18.612Z,32.63
2018-12-15T19:14:54.506Z,32.88
2018-12-15T19:17:32.733Z,31.30
2018-12-15T19:20:11.922Z,27.90
2018-12-15T19:22:53.497Z,29.92
2018-12-15T19:25:31.541Z,33.83
2018-12-15T19:28:06.616Z,30.20
2018-12-15T19:30:41.257Z,27.70
2018-12-15T19:33:19.004Z,32.73
2018-12-15T19:35:54.601Z,28.15
2018-12-15T19:38:30.798Z,37.67
2018-12-15T19:41:06.289Z,32.80
2018-12-15T19:43:41.847Z,28.00
2018-12-15T19:46:17.936Z,30.27
2018-12-15T19:48:54.808Z,28.60
2018-12-15T19:51:30.691Z,28.62
2018-12-15T19:54:11.552Z,29.18
2018-12-15T19:57:06.887Z,24.47
2018-12-15T19:59:44.326Z,29.10
2018-12-15T20:02:21.747Z,27.98
2018-12-15T20:05:00.984Z,22.30
2018-12-15T20:07:39.916Z,23.25
2018-12-15T20:10:14.685Z,27.32
2018-12-15T20:12:50.848Z,25.15
2018-12-15T20:15:33.231Z,25.77
2018-12-15T20:18:10.659Z,27.40
2018-12-15T20:20:50.518Z,25.70
2018-12-15T20:23:28.176Z,24.95
2018-12-15T20:26:06.408Z,26.12
2018-12-15T20:28:41.173Z,28.12
2018-12-15T20:31:17.334Z,29.18
2018-12-15T20:33:53.370Z,24.32
2018-12-15T20:36:28.808Z,31.87
2018-12-15T20:39:07.763Z,25.90
2018-12-15T20:41:42.563Z,24.72
2018-12-15T20:44:22.295Z,24.98
2018-12-15T20:46:58.170Z,23.67
2018-12-15T20:49:35.355Z,23.87
2018-12-15T20:52:11.363Z,23.83
2018-12-15T20:54:49.073Z,23.30
2018-12-15T20:57:24.637Z,29.25
2018-12-15T20:59:59.411Z,21.48
2018-12-15T21:02:57.254Z,24.57
2018-12-15T21:05:47.999Z,28.27
2018-12-15T21:08:34.657Z,21.75
2018-12-15T21:11:24.127Z,24.95
2018-12-15T21:14:03.735Z,24.67
2018-12-15T21:16:39.463Z,21.00
2018-12-15T21:19:19.570Z,21.15
2018-12-15T21:29:01.750Z,25.72
2018-12-15T21:31:36.911Z,19.52
2018-12-15T21:34:13.345Z,27.32
2018-12-15T21:40:08.976Z,24.60
2018-12-15T21:42:48.864Z,25.68
2018-12-15T21:45:27.534Z,24.10
2018-12-15T21:48:10.673Z,22.70
2018-12-15T21:50:53.649Z,23.92
2018-12-15T21:56:20.727Z,22.45
2018-12-15T21:58:57.811Z,28.30
2018-12-15T22:01:41.326Z,26.80
2018-12-15T22:04:28.061Z,29.07
2018-12-15T22:07:17.254Z,32.35
2018-12-15T22:09:52.739Z,26.23
2018-12-15T22:12:29.132Z,24.75
2018-12-15T22:15:18.192Z,24.40
2018-12-15T22:18:02.815Z,23.92
2018-12-15T22:26:32.415Z,22.45
2018-12-15T22:29:13.390Z,22.42
2018-12-15T22:31:54.714Z,26.48
2018-12-15T22:34:30.426Z,21.77
2018-12-15T22:37:13.027Z,21.75
2018-12-15T22:40:02.078Z,22.62
2018-12-15T22:42:43.600Z,25.90
2018-12-15T22:45:24.667Z,25.92
2018-12-15T22:48:01.600Z,23.60
2018-12-15T22:50:43.063Z,28.77
2018-12-15T22:53:35.820Z,23.18
2018-12-15T22:56:19.778Z,24.57
2018-12-15T22:59:08.670Z,25.52
2018-12-15T23:01:47.092Z,28.77
2018-12-15T23:04:28.330Z,26.20
2018-12-15T23:07:15.618Z,26.90
2018-12-15T23:10:08.430Z,31.17
2018-12-15T23:12:43.510Z,29.10
2018-12-15T23:15:22.313Z,31.70
2018-12-15T23:18:02.196Z,29.40
2018-12-15T23:20:39.657Z,34.65
2018-12-15T23:23:17.619Z,29.92
2018-12-15T23:26:06.742Z,31.93
2018-12-15T23:28:44.570Z,34.15
2018-12-15T23:31:33.356Z,32.83
2018-12-15T23:34:17.400Z,34.05
2018-12-15T23:37:00.463Z,34.90
2018-12-15T23:39:34.627Z,37.50
2018-12-15T23:42:15.724Z,39.63
2018-12-15T23:44:59.874Z,30.88
2018-12-15T23:47:43.213Z,33.40
2018-12-15T23:50:23.814Z,37.30
2018-12-15T23:53:03.432Z,36.08
2018-12-15T23:55:48.494Z,36.48
2018-12-15T23:58:33.662Z,38.78
